sensor_id;sensor_type;location;lat;lon;timestamp;P1;durP1;ratioP1;P2;durP2;ratioP2
68074;SDS011;54864;52.002;5.468;2023-07-13T00:00:13;9.90;;;2.35;;
68074;SDS011;54864;52.002;5.468;2023-07-13T00:01:16;9.10;;;2.80;;
68074;SDS011;54864;52.002;5.468;2023-07-13T00:02:19;8.50;;;2.53;;
68074;SDS011;54864;52.002;5.468;2023-07-13T00:03:19;9.25;;;2.53;;
68074;SDS011;54864;52.002;5.468;2023-07-13T00:04:22;11.00;;;2.65;;
68074;SDS011;54864;52.002;5.468;2023-07-13T00:05:25;7.38;;;2.58;;
68074;SDS011;54864;52.002;5.468;2023-07-13T00:06:27;9.80;;;2.90;;
68074;SDS011;54864;52.002;5.468;2023-07-13T00:07:30;9.70;;;2.40;;
68074;SDS011;54864;52.002;5.468;2023-07-13T00:08:32;11.50;;;2.92;;
68074;SDS011;54864;52.002;5.468;2023-07-13T00:09:36;6.30;;;2.60;;
68074;SDS011;54864;52.002;5.468;2023-07-13T00:10:41;13.80;;;2.85;;
68074;SDS011;54864;52.002;5.468;2023-07-13T00:11:42;14.15;;;3.00;;
68074;SDS011;54864;52.002;5.468;2023-07-13T00:12:44;7.15;;;2.42;;
68074;SDS011;54864;52.002;5.468;2023-07-13T00:13:46;9.40;;;2.97;;
68074;SDS011;54864;52.002;5.468;2023-07-13T00:14:47;9.18;;;2.55;;
68074;SDS011;54864;52.002;5.468;2023-07-13T00:15:49;14.63;;;2.42;;
68074;SDS011;54864;52.002;5.468;2023-07-13T00:16:50;8.88;;;2.50;;
68074;SDS011;54864;52.002;5.468;2023-07-13T00:17:53;8.63;;;2.70;;
68074;SDS011;54864;52.002;5.468;2023-07-13T00:18:55;7.90;;;2.63;;
68074;SDS011;54864;52.002;5.468;2023-07-13T00:19:57;8.27;;;3.10;;
68074;SDS011;54864;52.002;5.468;2023-07-13T00:20:58;7.45;;;2.72;;
68074;SDS011;54864;52.002;5.468;2023-07-13T00:22:05;9.70;;;2.53;;
68074;SDS011;54864;52.002;5.468;2023-07-13T00:23:06;14.52;;;3.25;;
68074;SDS011;54864;52.002;5.468;2023-07-13T00:24:10;8.13;;;2.55;;
68074;SDS011;54864;52.002;5.468;2023-07-13T00:25:14;13.35;;;2.90;;
68074;SDS011;54864;52.002;5.468;2023-07-13T00:26:17;9.38;;;2.50;;
68074;SDS011;54864;52.002;5.468;2023-07-13T00:27:18;10.93;;;2.95;;
68074;SDS011;54864;52.002;5.468;2023-07-13T00:28:20;12.00;;;3.15;;
68074;SDS011;54864;52.002;5.468;2023-07-13T00:29:22;9.23;;;2.78;;
68074;SDS011;54864;52.002;5.468;2023-07-13T00:30:23;13.55;;;3.03;;
68074;SDS011;54864;52.002;5.468;2023-07-13T00:31:25;12.73;;;2.60;;
68074;SDS011;54864;52.002;5.468;2023-07-13T00:32:27;9.70;;;2.88;;
68074;SDS011;54864;52.002;5.468;2023-07-13T00:33:29;8.00;;;2.60;;
68074;SDS011;54864;52.002;5.468;2023-07-13T00:34:31;8.23;;;2.60;;
68074;SDS011;54864;52.002;5.468;2023-07-13T00:35:33;10.95;;;3.85;;
68074;SDS011;54864;52.002;5.468;2023-07-13T00:36:35;11.75;;;2.97;;
68074;SDS011;54864;52.002;5.468;2023-07-13T00:37:36;9.48;;;2.53;;
68074;SDS011;54864;52.002;5.468;2023-07-13T00:38:38;7.93;;;2.78;;
68074;SDS011;54864;52.002;5.468;2023-07-13T00:39:39;8.25;;;2.50;;
68074;SDS011;54864;52.002;5.468;2023-07-13T00:40:41;8.57;;;2.73;;
68074;SDS011;54864;52.002;5.468;2023-07-13T00:41:43;13.00;;;2.88;;
68074;SDS011;54864;52.002;5.468;2023-07-13T00:42:44;8.05;;;2.78;;
68074;SDS011;54864;52.002;5.468;2023-07-13T00:43:46;14.77;;;3.55;;
68074;SDS011;54864;52.002;5.468;2023-07-13T00:45:07;12.15;;;2.97;;
68074;SDS011;54864;52.002;5.468;2023-07-13T00:46:26;8.95;;;2.53;;
68074;SDS011;54864;52.002;5.468;2023-07-13T00:47:28;8.43;;;2.63;;
68074;SDS011;54864;52.002;5.468;2023-07-13T00:48:31;11.65;;;2.85;;
68074;SDS011;54864;52.002;5.468;2023-07-13T00:49:35;12.45;;;2.65;;
68074;SDS011;54864;52.002;5.468;2023-07-13T00:50:37;12.20;;;3.38;;
68074;SDS011;54864;52.002;5.468;2023-07-13T00:51:40;8.30;;;2.22;;
68074;SDS011;54864;52.002;5.468;2023-07-13T00:52:52;11.25;;;3.20;;
68074;SDS011;54864;52.002;5.468;2023-07-13T00:53:58;7.70;;;2.47;;
68074;SDS011;54864;52.002;5.468;2023-07-13T00:55:05;7.50;;;2.50;;
68074;SDS011;54864;52.002;5.468;2023-07-13T00:56:08;8.43;;;2.72;;
68074;SDS011;54864;52.002;5.468;2023-07-13T00:57:11;8.15;;;2.65;;
68074;SDS011;54864;52.002;5.468;2023-07-13T00:58:15;10.57;;;3.28;;
68074;SDS011;54864;52.002;5.468;2023-07-13T00:59:17;10.23;;;2.78;;
68074;SDS011;54864;52.002;5.468;2023-07-13T01:00:23;9.85;;;2.67;;
68074;SDS011;54864;52.002;5.468;2023-07-13T01:01:27;11.98;;;3.20;;
68074;SDS011;54864;52.002;5.468;2023-07-13T01:02:28;12.60;;;3.20;;
68074;SDS011;54864;52.002;5.468;2023-07-13T01:03:30;9.90;;;2.70;;
68074;SDS011;54864;52.002;5.468;2023-07-13T01:04:31;8.77;;;2.80;;
68074;SDS011;54864;52.002;5.468;2023-07-13T01:05:33;5.53;;;2.67;;
68074;SDS011;54864;52.002;5.468;2023-07-13T01:06:35;12.18;;;3.10;;
68074;SDS011;54864;52.002;5.468;2023-07-13T01:07:37;7.75;;;3.08;;
68074;SDS011;54864;52.002;5.468;2023-07-13T01:08:39;8.30;;;2.85;;
68074;SDS011;54864;52.002;5.468;2023-07-13T01:09:40;8.52;;;3.15;;
68074;SDS011;54864;52.002;5.468;2023-07-13T01:10:50;11.48;;;3.35;;
68074;SDS011;54864;52.002;5.468;2023-07-13T01:11:53;7.45;;;2.40;;
68074;SDS011;54864;52.002;5.468;2023-07-13T01:12:55;9.50;;;3.53;;
68074;SDS011;54864;52.002;5.468;2023-07-13T01:13:56;10.60;;;3.00;;
68074;SDS011;54864;52.002;5.468;2023-07-13T01:14:57;11.07;;;2.67;;
68074;SDS011;54864;52.002;5.468;2023-07-13T01:16:01;8.80;;;2.87;;
68074;SDS011;54864;52.002;5.468;2023-07-13T01:17:09;13.40;;;2.88;;
68074;SDS011;54864;52.002;5.468;2023-07-13T01:18:12;8.93;;;3.03;;
68074;SDS011;54864;52.002;5.468;2023-07-13T01:19:27;9.05;;;3.10;;
68074;SDS011;54864;52.002;5.468;2023-07-13T01:20:37;7.55;;;2.30;;
68074;SDS011;54864;52.002;5.468;2023-07-13T01:21:39;8.73;;;2.55;;
68074;SDS011;54864;52.002;5.468;2023-07-13T01:22:42;13.45;;;3.28;;
68074;SDS011;54864;52.002;5.468;2023-07-13T01:23:44;8.57;;;2.97;;
68074;SDS011;54864;52.002;5.468;2023-07-13T01:24:46;10.07;;;3.00;;
68074;SDS011;54864;52.002;5.468;2023-07-13T01:25:48;4.95;;;2.58;;
68074;SDS011;54864;52.002;5.468;2023-07-13T01:26:50;8.88;;;2.80;;
68074;SDS011;54864;52.002;5.468;2023-07-13T01:27:51;10.53;;;2.63;;
68074;SDS011;54864;52.002;5.468;2023-07-13T01:28:52;7.45;;;2.70;;
68074;SDS011;54864;52.002;5.468;2023-07-13T01:29:59;13.20;;;3.08;;
68074;SDS011;54864;52.002;5.468;2023-07-13T01:31:04;7.95;;;2.72;;
68074;SDS011;54864;52.002;5.468;2023-07-13T01:32:05;12.00;;;4.50;;
68074;SDS011;54864;52.002;5.468;2023-07-13T01:33:08;8.90;;;2.65;;
68074;SDS011;54864;52.002;5.468;2023-07-13T01:34:09;10.90;;;3.10;;
68074;SDS011;54864;52.002;5.468;2023-07-13T01:35:11;10.00;;;2.47;;
68074;SDS011;54864;52.002;5.468;2023-07-13T01:36:15;9.57;;;3.08;;
68074;SDS011;54864;52.002;5.468;2023-07-13T01:37:18;10.70;;;3.10;;
68074;SDS011;54864;52.002;5.468;2023-07-13T01:38:20;9.07;;;2.93;;
68074;SDS011;54864;52.002;5.468;2023-07-13T01:39:23;8.68;;;3.00;;
68074;SDS011;54864;52.002;5.468;2023-07-13T01:40:25;9.95;;;3.05;;
68074;SDS011;54864;52.002;5.468;2023-07-13T01:41:27;8.48;;;2.63;;
68074;SDS011;54864;52.002;5.468;2023-07-13T01:42:28;6.40;;;2.92;;
68074;SDS011;54864;52.002;5.468;2023-07-13T01:43:30;11.95;;;3.05;;
68074;SDS011;54864;52.002;5.468;2023-07-13T01:44:32;9.48;;;2.65;;
68074;SDS011;54864;52.002;5.468;2023-07-13T01:45:34;8.07;;;2.70;;
68074;SDS011;54864;52.002;5.468;2023-07-13T01:46:38;12.13;;;3.00;;
68074;SDS011;54864;52.002;5.468;2023-07-13T01:47:39;9.50;;;2.80;;
68074;SDS011;54864;52.002;5.468;2023-07-13T01:48:40;10.50;;;2.90;;
68074;SDS011;54864;52.002;5.468;2023-07-13T01:49:42;11.38;;;3.10;;
68074;SDS011;54864;52.002;5.468;2023-07-13T01:50:43;10.48;;;3.05;;
68074;SDS011;54864;52.002;5.468;2023-07-13T01:51:45;7.97;;;3.20;;
68074;SDS011;54864;52.002;5.468;2023-07-13T01:52:47;9.05;;;3.25;;
68074;SDS011;54864;52.002;5.468;2023-07-13T01:53:49;11.52;;;3.13;;
68074;SDS011;54864;52.002;5.468;2023-07-13T01:54:50;10.13;;;2.95;;
68074;SDS011;54864;52.002;5.468;2023-07-13T01:55:52;11.43;;;3.03;;
68074;SDS011;54864;52.002;5.468;2023-07-13T01:56:53;8.05;;;2.85;;
68074;SDS011;54864;52.002;5.468;2023-07-13T01:57:55;10.23;;;3.00;;
68074;SDS011;54864;52.002;5.468;2023-07-13T01:58:56;9.70;;;3.33;;
68074;SDS011;54864;52.002;5.468;2023-07-13T01:59:58;10.23;;;2.80;;
68074;SDS011;54864;52.002;5.468;2023-07-13T02:00:59;10.30;;;3.30;;
68074;SDS011;54864;52.002;5.468;2023-07-13T02:02:01;6.35;;;2.90;;
68074;SDS011;54864;52.002;5.468;2023-07-13T02:03:02;9.63;;;3.13;;
68074;SDS011;54864;52.002;5.468;2023-07-13T02:04:04;10.50;;;3.08;;
68074;SDS011;54864;52.002;5.468;2023-07-13T02:05:05;10.68;;;3.38;;
68074;SDS011;54864;52.002;5.468;2023-07-13T02:06:08;10.30;;;3.05;;
68074;SDS011;54864;52.002;5.468;2023-07-13T02:07:11;11.57;;;3.08;;
68074;SDS011;54864;52.002;5.468;2023-07-13T02:08:16;10.85;;;3.20;;
68074;SDS011;54864;52.002;5.468;2023-07-13T02:09:17;12.23;;;2.72;;
68074;SDS011;54864;52.002;5.468;2023-07-13T02:10:22;8.93;;;2.78;;
68074;SDS011;54864;52.002;5.468;2023-07-13T02:11:23;9.90;;;2.90;;
68074;SDS011;54864;52.002;5.468;2023-07-13T02:12:32;8.65;;;2.92;;
68074;SDS011;54864;52.002;5.468;2023-07-13T02:13:33;7.75;;;3.05;;
68074;SDS011;54864;52.002;5.468;2023-07-13T02:14:35;12.32;;;3.38;;
68074;SDS011;54864;52.002;5.468;2023-07-13T02:15:38;12.15;;;2.95;;
68074;SDS011;54864;52.002;5.468;2023-07-13T02:16:41;11.70;;;3.58;;
68074;SDS011;54864;52.002;5.468;2023-07-13T02:17:41;13.17;;;3.70;;
68074;SDS011;54864;52.002;5.468;2023-07-13T02:18:43;13.98;;;3.80;;
68074;SDS011;54864;52.002;5.468;2023-07-13T02:19:44;9.60;;;3.13;;
68074;SDS011;54864;52.002;5.468;2023-07-13T02:20:46;13.93;;;3.10;;
68074;SDS011;54864;52.002;5.468;2023-07-13T02:21:47;9.90;;;3.33;;
68074;SDS011;54864;52.002;5.468;2023-07-13T02:22:48;9.85;;;3.20;;
68074;SDS011;54864;52.002;5.468;2023-07-13T02:23:51;9.77;;;3.58;;
68074;SDS011;54864;52.002;5.468;2023-07-13T02:24:52;14.48;;;3.42;;
68074;SDS011;54864;52.002;5.468;2023-07-13T02:25:55;10.93;;;3.67;;
68074;SDS011;54864;52.002;5.468;2023-07-13T02:26:56;14.20;;;3.45;;
68074;SDS011;54864;52.002;5.468;2023-07-13T02:27:57;11.47;;;3.40;;
68074;SDS011;54864;52.002;5.468;2023-07-13T02:28:59;11.65;;;3.97;;
68074;SDS011;54864;52.002;5.468;2023-07-13T02:30:00;8.65;;;3.10;;
68074;SDS011;54864;52.002;5.468;2023-07-13T02:31:04;11.38;;;3.38;;
68074;SDS011;54864;52.002;5.468;2023-07-13T02:32:07;16.42;;;4.07;;
68074;SDS011;54864;52.002;5.468;2023-07-13T02:33:08;13.75;;;3.45;;
68074;SDS011;54864;52.002;5.468;2023-07-13T02:34:10;9.55;;;3.38;;
68074;SDS011;54864;52.002;5.468;2023-07-13T02:35:11;12.68;;;3.25;;
68074;SDS011;54864;52.002;5.468;2023-07-13T02:36:12;9.02;;;3.20;;
68074;SDS011;54864;52.002;5.468;2023-07-13T02:37:14;9.57;;;3.33;;
68074;SDS011;54864;52.002;5.468;2023-07-13T02:38:15;13.63;;;3.47;;
68074;SDS011;54864;52.002;5.468;2023-07-13T02:39:21;10.73;;;3.83;;
68074;SDS011;54864;52.002;5.468;2023-07-13T02:40:22;10.90;;;3.60;;
68074;SDS011;54864;52.002;5.468;2023-07-13T02:41:24;14.15;;;3.58;;
68074;SDS011;54864;52.002;5.468;2023-07-13T02:42:27;12.05;;;3.00;;
68074;SDS011;54864;52.002;5.468;2023-07-13T02:43:29;12.23;;;3.65;;
68074;SDS011;54864;52.002;5.468;2023-07-13T02:44:30;12.65;;;3.72;;
68074;SDS011;54864;52.002;5.468;2023-07-13T02:45:32;15.93;;;4.07;;
68074;SDS011;54864;52.002;5.468;2023-07-13T02:46:33;11.87;;;3.30;;
68074;SDS011;54864;52.002;5.468;2023-07-13T02:47:36;11.88;;;3.70;;
68074;SDS011;54864;52.002;5.468;2023-07-13T02:48:37;12.95;;;3.35;;
68074;SDS011;54864;52.002;5.468;2023-07-13T02:49:40;12.40;;;3.65;;
68074;SDS011;54864;52.002;5.468;2023-07-13T02:50:41;18.45;;;4.18;;
68074;SDS011;54864;52.002;5.468;2023-07-13T02:51:45;12.73;;;4.18;;
68074;SDS011;54864;52.002;5.468;2023-07-13T02:52:46;13.38;;;3.75;;
68074;SDS011;54864;52.002;5.468;2023-07-13T02:53:48;11.40;;;3.70;;
68074;SDS011;54864;52.002;5.468;2023-07-13T02:54:50;13.07;;;4.47;;
68074;SDS011;54864;52.002;5.468;2023-07-13T02:55:52;12.18;;;3.97;;
68074;SDS011;54864;52.002;5.468;2023-07-13T02:56:53;13.32;;;3.90;;
68074;SDS011;54864;52.002;5.468;2023-07-13T02:57:55;12.82;;;4.75;;
68074;SDS011;54864;52.002;5.468;2023-07-13T02:58:56;14.23;;;3.72;;
68074;SDS011;54864;52.002;5.468;2023-07-13T02:59:57;14.80;;;4.18;;
68074;SDS011;54864;52.002;5.468;2023-07-13T03:00:59;10.52;;;4.00;;
68074;SDS011;54864;52.002;5.468;2023-07-13T03:02:07;11.50;;;4.20;;
68074;SDS011;54864;52.002;5.468;2023-07-13T03:03:10;7.97;;;3.55;;
68074;SDS011;54864;52.002;5.468;2023-07-13T03:04:11;14.27;;;4.03;;
68074;SDS011;54864;52.002;5.468;2023-07-13T03:05:13;12.55;;;3.78;;
68074;SDS011;54864;52.002;5.468;2023-07-13T03:06:15;12.15;;;3.97;;
68074;SDS011;54864;52.002;5.468;2023-07-13T03:07:17;15.35;;;3.78;;
68074;SDS011;54864;52.002;5.468;2023-07-13T03:08:18;18.55;;;5.30;;
68074;SDS011;54864;52.002;5.468;2023-07-13T03:09:20;19.45;;;4.50;;
68074;SDS011;54864;52.002;5.468;2023-07-13T03:10:23;12.73;;;4.10;;
68074;SDS011;54864;52.002;5.468;2023-07-13T03:11:25;14.93;;;4.40;;
68074;SDS011;54864;52.002;5.468;2023-07-13T03:12:26;10.30;;;4.03;;
68074;SDS011;54864;52.002;5.468;2023-07-13T03:13:28;12.05;;;4.05;;
68074;SDS011;54864;52.002;5.468;2023-07-13T03:14:29;13.40;;;4.13;;
68074;SDS011;54864;52.002;5.468;2023-07-13T03:15:31;13.52;;;4.13;;
68074;SDS011;54864;52.002;5.468;2023-07-13T03:16:32;13.48;;;4.10;;
68074;SDS011;54864;52.002;5.468;2023-07-13T03:17:34;19.75;;;4.55;;
68074;SDS011;54864;52.002;5.468;2023-07-13T03:18:35;12.35;;;4.38;;
68074;SDS011;54864;52.002;5.468;2023-07-13T03:19:37;13.88;;;4.25;;
68074;SDS011;54864;52.002;5.468;2023-07-13T03:20:38;16.80;;;4.40;;
68074;SDS011;54864;52.002;5.468;2023-07-13T03:21:40;12.65;;;4.18;;
68074;SDS011;54864;52.002;5.468;2023-07-13T03:22:41;12.48;;;3.50;;
68074;SDS011;54864;52.002;5.468;2023-07-13T03:23:43;8.32;;;3.95;;
68074;SDS011;54864;52.002;5.468;2023-07-13T03:24:50;12.60;;;4.20;;
68074;SDS011;54864;52.002;5.468;2023-07-13T03:26:01;18.23;;;4.30;;
68074;SDS011;54864;52.002;5.468;2023-07-13T03:27:03;12.63;;;4.13;;
68074;SDS011;54864;52.002;5.468;2023-07-13T03:28:06;14.43;;;4.55;;
68074;SDS011;54864;52.002;5.468;2023-07-13T03:29:07;14.10;;;4.72;;
68074;SDS011;54864;52.002;5.468;2023-07-13T03:30:09;13.45;;;4.78;;
68074;SDS011;54864;52.002;5.468;2023-07-13T03:31:11;17.88;;;4.72;;
68074;SDS011;54864;52.002;5.468;2023-07-13T03:32:19;17.48;;;4.50;;
68074;SDS011;54864;52.002;5.468;2023-07-13T03:33:22;14.25;;;4.13;;
68074;SDS011;54864;52.002;5.468;2023-07-13T03:34:24;14.93;;;4.68;;
68074;SDS011;54864;52.002;5.468;2023-07-13T03:35:25;12.23;;;4.22;;
68074;SDS011;54864;52.002;5.468;2023-07-13T03:36:28;11.77;;;4.50;;
68074;SDS011;54864;52.002;5.468;2023-07-13T03:37:31;16.15;;;5.20;;
68074;SDS011;54864;52.002;5.468;2023-07-13T03:38:32;14.43;;;4.47;;
68074;SDS011;54864;52.002;5.468;2023-07-13T03:39:34;14.00;;;4.07;;
68074;SDS011;54864;52.002;5.468;2023-07-13T03:40:35;13.73;;;4.33;;
68074;SDS011;54864;52.002;5.468;2023-07-13T03:41:39;17.65;;;4.63;;
68074;SDS011;54864;52.002;5.468;2023-07-13T03:42:39;15.77;;;4.50;;
68074;SDS011;54864;52.002;5.468;2023-07-13T03:43:42;16.95;;;4.85;;
68074;SDS011;54864;52.002;5.468;2023-07-13T03:44:42;13.85;;;5.25;;
68074;SDS011;54864;52.002;5.468;2023-07-13T03:45:46;14.57;;;4.50;;
68074;SDS011;54864;52.002;5.468;2023-07-13T03:46:47;12.70;;;4.32;;
68074;SDS011;54864;52.002;5.468;2023-07-13T03:47:49;13.43;;;4.72;;
68074;SDS011;54864;52.002;5.468;2023-07-13T03:48:50;13.68;;;4.22;;
68074;SDS011;54864;52.002;5.468;2023-07-13T03:49:52;16.98;;;5.05;;
68074;SDS011;54864;52.002;5.468;2023-07-13T03:50:53;16.08;;;5.22;;
68074;SDS011;54864;52.002;5.468;2023-07-13T03:51:55;15.02;;;5.03;;
68074;SDS011;54864;52.002;5.468;2023-07-13T03:52:56;18.17;;;5.78;;
68074;SDS011;54864;52.002;5.468;2023-07-13T03:53:59;15.32;;;4.85;;
68074;SDS011;54864;52.002;5.468;2023-07-13T03:54:59;13.90;;;4.60;;
68074;SDS011;54864;52.002;5.468;2023-07-13T03:56:01;15.63;;;4.60;;
68074;SDS011;54864;52.002;5.468;2023-07-13T03:57:04;10.57;;;4.47;;
68074;SDS011;54864;52.002;5.468;2023-07-13T03:58:29;12.40;;;4.68;;
68074;SDS011;54864;52.002;5.468;2023-07-13T03:59:32;15.93;;;4.88;;
68074;SDS011;54864;52.002;5.468;2023-07-13T04:00:34;18.55;;;5.63;;
68074;SDS011;54864;52.002;5.468;2023-07-13T04:01:35;19.27;;;5.77;;
68074;SDS011;54864;52.002;5.468;2023-07-13T04:02:36;15.23;;;4.50;;
68074;SDS011;54864;52.002;5.468;2023-07-13T04:03:37;13.40;;;5.03;;
68074;SDS011;54864;52.002;5.468;2023-07-13T04:04:38;14.70;;;4.57;;
68074;SDS011;54864;52.002;5.468;2023-07-13T04:05:41;11.32;;;4.60;;
68074;SDS011;54864;52.002;5.468;2023-07-13T04:06:42;14.10;;;4.70;;
68074;SDS011;54864;52.002;5.468;2023-07-13T04:07:43;14.32;;;5.07;;
68074;SDS011;54864;52.002;5.468;2023-07-13T04:08:44;18.17;;;4.22;;
68074;SDS011;54864;52.002;5.468;2023-07-13T04:09:46;14.25;;;4.68;;
68074;SDS011;54864;52.002;5.468;2023-07-13T04:10:47;13.83;;;5.00;;
68074;SDS011;54864;52.002;5.468;2023-07-13T04:11:49;15.23;;;4.50;;
68074;SDS011;54864;52.002;5.468;2023-07-13T04:12:51;13.80;;;4.47;;
68074;SDS011;54864;52.002;5.468;2023-07-13T04:13:53;12.90;;;4.90;;
68074;SDS011;54864;52.002;5.468;2023-07-13T04:14:54;12.93;;;4.40;;
68074;SDS011;54864;52.002;5.468;2023-07-13T04:15:56;16.00;;;4.50;;
68074;SDS011;54864;52.002;5.468;2023-07-13T04:16:57;16.20;;;4.90;;
68074;SDS011;54864;52.002;5.468;2023-07-13T04:17:59;15.38;;;5.25;;
68074;SDS011;54864;52.002;5.468;2023-07-13T04:18:59;13.73;;;5.43;;
68074;SDS011;54864;52.002;5.468;2023-07-13T04:20:01;13.70;;;5.13;;
68074;SDS011;54864;52.002;5.468;2023-07-13T04:21:03;14.00;;;4.90;;
68074;SDS011;54864;52.002;5.468;2023-07-13T04:22:05;21.20;;;5.70;;
68074;SDS011;54864;52.002;5.468;2023-07-13T04:23:06;15.75;;;5.60;;
68074;SDS011;54864;52.002;5.468;2023-07-13T04:24:08;13.70;;;5.60;;
68074;SDS011;54864;52.002;5.468;2023-07-13T04:25:09;22.88;;;5.80;;
68074;SDS011;54864;52.002;5.468;2023-07-13T04:26:11;14.75;;;5.57;;
68074;SDS011;54864;52.002;5.468;2023-07-13T04:27:12;15.05;;;5.05;;
68074;SDS011;54864;52.002;5.468;2023-07-13T04:28:15;20.63;;;5.20;;
68074;SDS011;54864;52.002;5.468;2023-07-13T04:29:17;17.80;;;5.20;;
68074;SDS011;54864;52.002;5.468;2023-07-13T04:30:18;15.77;;;5.65;;
68074;SDS011;54864;52.002;5.468;2023-07-13T04:31:20;21.67;;;6.18;;
68074;SDS011;54864;52.002;5.468;2023-07-13T04:32:22;15.70;;;5.50;;
68074;SDS011;54864;52.002;5.468;2023-07-13T04:33:23;23.70;;;7.00;;
68074;SDS011;54864;52.002;5.468;2023-07-13T04:34:24;22.73;;;6.00;;
68074;SDS011;54864;52.002;5.468;2023-07-13T04:35:26;17.92;;;5.93;;
68074;SDS011;54864;52.002;5.468;2023-07-13T04:36:27;21.45;;;6.47;;
68074;SDS011;54864;52.002;5.468;2023-07-13T04:37:29;16.77;;;5.78;;
68074;SDS011;54864;52.002;5.468;2023-07-13T04:38:31;15.68;;;5.70;;
68074;SDS011;54864;52.002;5.468;2023-07-13T04:39:33;20.95;;;7.07;;
68074;SDS011;54864;52.002;5.468;2023-07-13T04:40:37;18.30;;;6.20;;
68074;SDS011;54864;52.002;5.468;2023-07-13T04:41:39;21.45;;;6.72;;
68074;SDS011;54864;52.002;5.468;2023-07-13T04:42:39;22.83;;;6.72;;
68074;SDS011;54864;52.002;5.468;2023-07-13T04:43:43;19.85;;;6.95;;
68074;SDS011;54864;52.002;5.468;2023-07-13T04:44:49;20.63;;;6.63;;
68074;SDS011;54864;52.002;5.468;2023-07-13T04:45:53;25.65;;;6.97;;
68074;SDS011;54864;52.002;5.468;2023-07-13T04:46:54;22.33;;;7.05;;
68074;SDS011;54864;52.002;5.468;2023-07-13T04:47:56;19.88;;;6.82;;
68074;SDS011;54864;52.002;5.468;2023-07-13T04:48:57;20.60;;;7.38;;
68074;SDS011;54864;52.002;5.468;2023-07-13T04:49:59;20.88;;;6.57;;
68074;SDS011;54864;52.002;5.468;2023-07-13T04:51:00;18.38;;;6.97;;
68074;SDS011;54864;52.002;5.468;2023-07-13T04:52:01;19.35;;;7.15;;
68074;SDS011;54864;52.002;5.468;2023-07-13T04:53:04;21.42;;;6.80;;
68074;SDS011;54864;52.002;5.468;2023-07-13T04:54:05;26.85;;;7.43;;
68074;SDS011;54864;52.002;5.468;2023-07-13T04:55:10;17.95;;;6.93;;
68074;SDS011;54864;52.002;5.468;2023-07-13T04:56:11;17.70;;;6.43;;
68074;SDS011;54864;52.002;5.468;2023-07-13T04:57:13;24.17;;;7.05;;
68074;SDS011;54864;52.002;5.468;2023-07-13T04:58:14;23.90;;;7.13;;
68074;SDS011;54864;52.002;5.468;2023-07-13T04:59:18;19.85;;;7.15;;
68074;SDS011;54864;52.002;5.468;2023-07-13T05:00:18;22.70;;;6.95;;
68074;SDS011;54864;52.002;5.468;2023-07-13T05:01:20;23.58;;;7.10;;
68074;SDS011;54864;52.002;5.468;2023-07-13T05:02:27;22.48;;;7.22;;
68074;SDS011;54864;52.002;5.468;2023-07-13T05:03:31;20.85;;;8.15;;
68074;SDS011;54864;52.002;5.468;2023-07-13T05:04:32;25.23;;;7.22;;
68074;SDS011;54864;52.002;5.468;2023-07-13T05:05:34;26.63;;;7.03;;
68074;SDS011;54864;52.002;5.468;2023-07-13T05:06:35;21.13;;;7.60;;
68074;SDS011;54864;52.002;5.468;2023-07-13T05:07:37;20.27;;;8.02;;
68074;SDS011;54864;52.002;5.468;2023-07-13T05:08:37;17.98;;;6.57;;
68074;SDS011;54864;52.002;5.468;2023-07-13T05:09:39;17.50;;;6.55;;
68074;SDS011;54864;52.002;5.468;2023-07-13T05:10:40;22.10;;;7.80;;
68074;SDS011;54864;52.002;5.468;2023-07-13T05:11:41;24.42;;;8.15;;
68074;SDS011;54864;52.002;5.468;2023-07-13T05:12:43;21.90;;;7.45;;
68074;SDS011;54864;52.002;5.468;2023-07-13T05:13:44;28.27;;;8.00;;
68074;SDS011;54864;52.002;5.468;2023-07-13T05:14:47;24.95;;;8.20;;
68074;SDS011;54864;52.002;5.468;2023-07-13T05:15:55;22.77;;;7.63;;
68074;SDS011;54864;52.002;5.468;2023-07-13T05:16:58;21.10;;;7.25;;
68074;SDS011;54864;52.002;5.468;2023-07-13T05:17:59;20.77;;;8.20;;
68074;SDS011;54864;52.002;5.468;2023-07-13T05:19:01;32.55;;;8.07;;
68074;SDS011;54864;52.002;5.468;2023-07-13T05:20:02;21.55;;;7.90;;
68074;SDS011;54864;52.002;5.468;2023-07-13T05:21:06;20.40;;;8.35;;
68074;SDS011;54864;52.002;5.468;2023-07-13T05:22:08;25.02;;;8.60;;
68074;SDS011;54864;52.002;5.468;2023-07-13T05:23:13;20.60;;;8.37;;
68074;SDS011;54864;52.002;5.468;2023-07-13T05:24:14;22.67;;;8.15;;
68074;SDS011;54864;52.002;5.468;2023-07-13T05:25:15;25.80;;;8.75;;
68074;SDS011;54864;52.002;5.468;2023-07-13T05:26:16;25.58;;;8.10;;
68074;SDS011;54864;52.002;5.468;2023-07-13T05:27:18;27.75;;;9.20;;
68074;SDS011;54864;52.002;5.468;2023-07-13T05:28:19;20.80;;;8.83;;
68074;SDS011;54864;52.002;5.468;2023-07-13T05:29:21;23.33;;;8.75;;
68074;SDS011;54864;52.002;5.468;2023-07-13T05:30:24;24.77;;;8.73;;
68074;SDS011;54864;52.002;5.468;2023-07-13T05:31:26;23.08;;;9.15;;
68074;SDS011;54864;52.002;5.468;2023-07-13T05:32:28;23.15;;;9.07;;
68074;SDS011;54864;52.002;5.468;2023-07-13T05:33:30;27.00;;;8.98;;
68074;SDS011;54864;52.002;5.468;2023-07-13T05:34:31;29.02;;;9.80;;
68074;SDS011;54864;52.002;5.468;2023-07-13T05:35:35;28.77;;;9.75;;
68074;SDS011;54864;52.002;5.468;2023-07-13T05:36:37;28.45;;;9.45;;
68074;SDS011;54864;52.002;5.468;2023-07-13T05:37:37;24.27;;;9.63;;
68074;SDS011;54864;52.002;5.468;2023-07-13T05:38:39;20.83;;;8.55;;
68074;SDS011;54864;52.002;5.468;2023-07-13T05:39:40;27.23;;;9.93;;
68074;SDS011;54864;52.002;5.468;2023-07-13T05:40:42;28.77;;;9.50;;
68074;SDS011;54864;52.002;5.468;2023-07-13T05:41:46;23.73;;;9.60;;
68074;SDS011;54864;52.002;5.468;2023-07-13T05:42:49;25.67;;;8.77;;
68074;SDS011;54864;52.002;5.468;2023-07-13T05:43:50;33.37;;;11.60;;
68074;SDS011;54864;52.002;5.468;2023-07-13T05:44:51;26.30;;;10.68;;
68074;SDS011;54864;52.002;5.468;2023-07-13T05:45:54;25.23;;;10.15;;
68074;SDS011;54864;52.002;5.468;2023-07-13T05:46:57;24.80;;;10.48;;
68074;SDS011;54864;52.002;5.468;2023-07-13T05:47:58;26.87;;;9.77;;
68074;SDS011;54864;52.002;5.468;2023-07-13T05:49:06;28.58;;;10.23;;
68074;SDS011;54864;52.002;5.468;2023-07-13T05:50:07;30.50;;;10.07;;
68074;SDS011;54864;52.002;5.468;2023-07-13T05:51:09;28.10;;;9.98;;
68074;SDS011;54864;52.002;5.468;2023-07-13T05:52:10;29.00;;;9.83;;
68074;SDS011;54864;52.002;5.468;2023-07-13T05:53:12;31.98;;;9.88;;
68074;SDS011;54864;52.002;5.468;2023-07-13T05:54:13;27.40;;;10.68;;
68074;SDS011;54864;52.002;5.468;2023-07-13T05:55:15;33.35;;;11.77;;
68074;SDS011;54864;52.002;5.468;2023-07-13T05:56:16;27.00;;;12.48;;
68074;SDS011;54864;52.002;5.468;2023-07-13T05:57:18;29.45;;;11.80;;
68074;SDS011;54864;52.002;5.468;2023-07-13T05:58:19;24.85;;;10.40;;
68074;SDS011;54864;52.002;5.468;2023-07-13T05:59:20;30.35;;;12.15;;
68074;SDS011;54864;52.002;5.468;2023-07-13T06:00:22;29.98;;;12.25;;
68074;SDS011;54864;52.002;5.468;2023-07-13T06:01:29;27.33;;;11.82;;
68074;SDS011;54864;52.002;5.468;2023-07-13T06:02:31;32.30;;;12.02;;
68074;SDS011;54864;52.002;5.468;2023-07-13T06:03:35;30.53;;;11.40;;
68074;SDS011;54864;52.002;5.468;2023-07-13T06:04:35;28.98;;;11.65;;
68074;SDS011;54864;52.002;5.468;2023-07-13T06:05:37;28.08;;;12.43;;
68074;SDS011;54864;52.002;5.468;2023-07-13T06:06:39;28.60;;;12.02;;
68074;SDS011;54864;52.002;5.468;2023-07-13T06:07:41;35.30;;;12.30;;
68074;SDS011;54864;52.002;5.468;2023-07-13T06:08:42;25.90;;;11.55;;
68074;SDS011;54864;52.002;5.468;2023-07-13T06:09:46;32.75;;;12.50;;
68074;SDS011;54864;52.002;5.468;2023-07-13T06:10:47;33.95;;;12.30;;